Time,TemperatureF,DewpointF,PressureIn,WindDirection,WindDirectionDegrees,WindSpeedMPH,WindSpeedGustMPH,Humidity,HourlyPrecipIn,Conditions,Clouds,dailyrainin,SolarRadiationWatts/m^2,SoftwareType,DateUTC
2013-06-28 00:02:00,74.0,73.0,-100.00,South,186,0.0,0.0,96,0.00,,,0.00,0.000000,,2013-06-28 04:02:00,
2013-06-28 00:43:00,72.0,71.0,-100.00,SSE,168,0.0,0.0,96,0.00,,,0.00,0.000000,,2013-06-28 04:43:00,
2013-06-28 00:53:00,72.0,71.0,-100.00,SSE,168,0.0,0.0,96,0.00,,,0.00,0.000000,,2013-06-28 04:53:00,
2013-06-28 01:01:00,72.0,71.0,-100.00,SSE,168,0.0,0.0,96,0.00,,,0.00,0.000000,,2013-06-28 05:01:00,
2013-06-28 01:43:00,71.0,70.0,-100.00,West,263,0.0,0.0,97,0.00,,,0.00,0.000000,,2013-06-28 05:43:00,
2013-06-28 01:53:00,71.0,70.0,-100.00,West,263,0.0,0.0,97,0.00,,,0.00,0.000000,,2013-06-28 05:53:00,
2013-06-28 02:02:00,71.0,70.0,-100.00,West,263,0.0,0.0,97,0.00,,,0.00,0.000000,,2013-06-28 06:02:00,
2013-06-28 02:43:00,71.0,70.0,-100.00,SSE,161,0.0,0.0,97,0.00,,,0.00,0.000000,,2013-06-28 06:43:00,
2013-06-28 02:52:00,71.0,70.0,-100.00,SSE,161,0.0,0.0,97,0.00,,,0.00,0.000000,,2013-06-28 06:52:00,
2013-06-28 03:01:00,71.0,70.0,-100.00,SSE,161,0.0,0.0,97,0.00,,,0.00,0.000000,,2013-06-28 07:01:00,
2013-06-28 03:33:00,71.0,70.0,-100.00,South,173,0.0,0.0,97,0.00,,,0.00,0.000000,,2013-06-28 07:33:00,
2013-06-28 03:43:00,71.0,70.0,-100.00,South,173,0.0,0.0,97,0.00,,,0.00,0.000000,,2013-06-28 07:43:00,
2013-06-28 03:52:00,71.0,70.0,-100.00,South,173,0.0,0.0,97,0.00,,,0.00,0.000000,,2013-06-28 07:52:00,
2013-06-28 04:02:00,71.0,70.0,-100.00,South,173,0.0,0.0,97,0.00,,,0.00,0.000000,,2013-06-28 08:02:00,
2013-06-28 04:33:00,70.0,69.0,-100.00,South,179,0.0,0.0,97,0.00,,,0.00,0.000000,,2013-06-28 08:33:00,
2013-06-28 04:43:00,70.0,69.0,-100.00,South,179,0.0,0.0,97,0.00,,,0.00,0.000000,,2013-06-28 08:43:00,
2013-06-28 04:52:00,70.0,69.0,-100.00,South,179,0.0,0.0,97,0.00,,,0.00,0.000000,,2013-06-28 08:52:00,
2013-06-28 05:02:00,70.0,69.0,-100.00,South,179,0.0,0.0,97,0.00,,,0.00,0.000000,,2013-06-28 09:02:00,
2013-06-28 05:42:00,69.0,68.0,-100.00,South,169,0.0,0.0,98,0.00,,,0.00,0.000000,,2013-06-28 09:42:00,
2013-06-28 05:52:00,69.0,68.0,-100.00,South,169,0.0,0.0,98,0.00,,,0.00,0.000000,,2013-06-28 09:52:00,
2013-06-28 06:02:00,69.0,68.0,-100.00,South,169,0.0,0.0,98,0.00,,,0.00,0.000000,,2013-06-28 10:02:00,
2013-06-28 06:42:00,68.0,67.0,-100.00,SSE,155,0.0,0.0,98,0.01,,,0.01,0.000000,,2013-06-28 10:42:00,
2013-06-28 06:52:00,68.0,67.0,-100.00,SSE,155,0.0,0.0,98,0.01,,,0.01,0.000000,,2013-06-28 10:52:00,
2013-06-28 07:02:00,68.0,67.0,-100.00,SSE,155,0.0,0.0,98,0.01,,,0.01,0.000000,,2013-06-28 11:02:00,
2013-06-28 07:43:00,68.0,67.0,-100.00,SSW,193,0.0,0.0,98,0.00,,,0.01,16.000000,,2013-06-28 11:43:00,
2013-06-28 07:53:00,68.0,67.0,-100.00,SSW,193,0.0,0.0,98,0.00,,,0.01,16.000000,,2013-06-28 11:53:00,
2013-06-28 08:02:00,68.0,67.0,-100.00,SSW,193,0.0,0.0,98,0.00,,,0.01,16.000000,,2013-06-28 12:02:00,
2013-06-28 08:34:00,72.0,71.0,-100.00,SSW,192,0.0,0.0,97,0.00,,,0.01,102.000000,,2013-06-28 12:34:00,
2013-06-28 08:43:00,72.0,71.0,-100.00,SSW,192,0.0,0.0,97,0.00,,,0.01,102.000000,,2013-06-28 12:43:00,
2013-06-28 08:52:00,72.0,71.0,-100.00,SSW,192,0.0,0.0,97,0.00,,,0.01,102.000000,,2013-06-28 12:52:00,
2013-06-28 09:01:00,72.0,71.0,-100.00,SSW,192,0.0,0.0,97,0.00,,,0.01,102.000000,,2013-06-28 13:01:00,
2013-06-28 09:43:00,77.0,73.0,-100.00,SSW,196,6.0,8.0,87,0.00,,,0.01,278.000000,,2013-06-28 13:43:00,
2013-06-28 09:53:00,77.0,73.0,-100.00,SSW,196,6.0,8.0,87,0.00,,,0.01,278.000000,,2013-06-28 13:53:00,
2013-06-28 10:02:00,77.0,73.0,-100.00,SSW,196,6.0,8.0,87,0.00,,,0.01,278.000000,,2013-06-28 14:02:00,
2013-06-28 10:33:00,81.0,73.0,-100.00,SSW,206,7.0,12.0,77,0.00,,,0.01,425.000000,,2013-06-28 14:33:00,
2013-06-28 10:44:00,81.0,73.0,-100.00,SSW,206,7.0,12.0,77,0.00,,,0.01,425.000000,,2013-06-28 14:44:00,
2013-06-28 10:53:00,81.0,73.0,-100.00,SSW,206,7.0,12.0,77,0.00,,,0.01,425.000000,,2013-06-28 14:53:00,
2013-06-28 11:02:00,81.0,73.0,-100.00,SSW,206,7.0,12.0,77,0.00,,,0.01,425.000000,,2013-06-28 15:02:00,
2013-06-28 11:34:00,84.0,73.0,-100.00,South,189,6.0,12.0,69,0.00,,,0.01,559.000000,,2013-06-28 15:34:00,
2013-06-28 11:43:00,84.0,73.0,-100.00,South,189,6.0,12.0,69,0.00,,,0.01,559.000000,,2013-06-28 15:43:00,
2013-06-28 11:52:00,84.0,73.0,-100.00,South,189,6.0,12.0,69,0.00,,,0.01,559.000000,,2013-06-28 15:52:00,
2013-06-28 12:02:00,84.0,73.0,-100.00,South,189,6.0,12.0,69,0.00,,,0.01,559.000000,,2013-06-28 16:02:00,
2013-06-28 12:44:00,86.0,72.0,-100.00,SSW,200,7.0,12.0,64,0.00,,,0.01,732.000000,,2013-06-28 16:44:00,
2013-06-28 12:53:00,86.0,72.0,-100.00,SSW,200,7.0,12.0,64,0.00,,,0.01,732.000000,,2013-06-28 16:53:00,
2013-06-28 13:02:00,86.0,72.0,-100.00,SSW,200,7.0,12.0,64,0.00,,,0.01,732.000000,,2013-06-28 17:02:00,
2013-06-28 13:44:00,87.0,73.0,-100.00,SSW,195,4.0,10.0,63,0.00,,,0.01,472.000000,,2013-06-28 17:44:00,
2013-06-28 13:52:00,87.0,73.0,-100.00,SSW,195,4.0,10.0,63,0.00,,,0.01,472.000000,,2013-06-28 17:52:00,
2013-06-28 14:02:00,87.0,73.0,-100.00,SSW,195,4.0,10.0,63,0.00,,,0.01,472.000000,,2013-06-28 18:02:00,
2013-06-28 14:43:00,91.0,72.0,-100.00,WSW,244,5.0,11.0,54,0.00,,,0.01,707.000000,,2013-06-28 18:43:00,
2013-06-28 14:52:00,91.0,72.0,-100.00,WSW,244,5.0,11.0,54,0.00,,,0.01,707.000000,,2013-06-28 18:52:00,
2013-06-28 15:01:00,91.0,72.0,-100.00,WSW,244,5.0,11.0,54,0.00,,,0.01,707.000000,,2013-06-28 19:01:00,
2013-06-28 15:33:00,88.0,69.0,-100.00,NW,312,5.0,13.0,53,0.00,,,0.01,423.000000,,2013-06-28 19:33:00,
2013-06-28 15:43:00,88.0,69.0,-100.00,NW,312,5.0,13.0,53,0.00,,,0.01,423.000000,,2013-06-28 19:43:00,
2013-06-28 15:53:00,88.0,69.0,-100.00,NW,312,5.0,13.0,53,0.00,,,0.01,423.000000,,2013-06-28 19:53:00,
2013-06-28 16:02:00,88.0,69.0,-100.00,NW,312,5.0,13.0,53,0.00,,,0.01,423.000000,,2013-06-28 20:02:00,
2013-06-28 16:33:00,88.0,66.0,-100.00,NW,315,6.0,14.0,49,0.00,,,0.01,560.000000,,2013-06-28 20:33:00,
2013-06-28 16:43:00,88.0,66.0,-100.00,NW,315,6.0,14.0,49,0.00,,,0.01,560.000000,,2013-06-28 20:43:00,
2013-06-28 16:52:00,88.0,66.0,-100.00,NW,315,6.0,14.0,49,0.00,,,0.01,560.000000,,2013-06-28 20:52:00,
2013-06-28 17:02:00,88.0,66.0,-100.00,NW,315,6.0,14.0,49,0.00,,,0.01,560.000000,,2013-06-28 21:02:00,
2013-06-28 17:43:00,86.0,67.0,-100.00,WNW,292,4.0,13.0,54,0.00,,,0.01,479.000000,,2013-06-28 21:43:00,
2013-06-28 17:53:00,86.0,67.0,-100.00,WNW,292,4.0,13.0,54,0.00,,,0.01,479.000000,,2013-06-28 21:53:00,
2013-06-28 18:01:00,86.0,67.0,-100.00,WNW,292,4.0,13.0,54,0.00,,,0.01,479.000000,,2013-06-28 22:01:00,
2013-06-28 18:34:00,84.0,69.0,-100.00,NW,307,1.0,14.0,60,0.00,,,0.01,217.000000,,2013-06-28 22:34:00,
2013-06-28 18:43:00,84.0,69.0,-100.00,NW,307,1.0,14.0,60,0.00,,,0.01,217.000000,,2013-06-28 22:43:00,
2013-06-28 18:53:00,84.0,69.0,-100.00,NW,307,1.0,14.0,60,0.00,,,0.01,217.000000,,2013-06-28 22:53:00,
2013-06-28 19:02:00,84.0,69.0,-100.00,NW,307,1.0,14.0,60,0.00,,,0.01,217.000000,,2013-06-28 23:02:00,
2013-06-28 19:34:00,78.0,71.0,-100.00,WSW,243,0.0,9.0,80,0.00,,,0.01,77.000000,,2013-06-28 23:34:00,
2013-06-28 19:43:00,78.0,71.0,-100.00,WSW,243,0.0,9.0,80,0.00,,,0.01,77.000000,,2013-06-28 23:43:00,
2013-06-28 19:53:00,78.0,71.0,-100.00,WSW,243,0.0,9.0,80,0.00,,,0.01,77.000000,,2013-06-28 23:53:00,
2013-06-28 20:02:00,78.0,71.0,-100.00,WSW,243,0.0,9.0,80,0.00,,,0.01,77.000000,,2013-06-29 00:02:00,
2013-06-28 20:33:00,80.0,69.0,-100.00,SSW,202,0.0,0.0,70,0.00,,,0.01,111.000000,,2013-06-29 00:33:00,
2013-06-28 20:42:00,80.0,69.0,-100.00,SSW,202,0.0,0.0,70,0.00,,,0.01,111.000000,,2013-06-29 00:42:00,
2013-06-28 20:52:00,80.0,69.0,-100.00,SSW,202,0.0,0.0,70,0.00,,,0.01,111.000000,,2013-06-29 00:52:00,
2013-06-28 21:01:00,80.0,69.0,-100.00,SSW,202,0.0,0.0,70,0.00,,,0.01,111.000000,,2013-06-29 01:01:00,
2013-06-28 21:32:00,74.0,69.0,-100.00,SE,128,0.0,5.0,84,0.00,,,0.01,32.000000,,2013-06-29 01:32:00,
2013-06-28 21:42:00,74.0,69.0,-100.00,SE,128,0.0,5.0,84,0.00,,,0.01,32.000000,,2013-06-29 01:42:00,
2013-06-28 21:52:00,74.0,69.0,-100.00,SE,128,0.0,5.0,84,0.00,,,0.01,32.000000,,2013-06-29 01:52:00,
2013-06-28 22:01:00,74.0,69.0,-100.00,SE,128,0.0,5.0,84,0.00,,,0.01,32.000000,,2013-06-29 02:01:00,
2013-06-28 22:31:00,72.0,68.0,-100.00,SW,222,0.0,4.0,87,0.00,,,0.01,0.000000,,2013-06-29 02:31:00,
2013-06-28 22:41:00,72.0,68.0,-100.00,SW,222,0.0,4.0,87,0.00,,,0.01,0.000000,,2013-06-29 02:41:00,
2013-06-28 22:51:00,72.0,68.0,-100.00,SW,222,0.0,4.0,87,0.00,,,0.01,0.000000,,2013-06-29 02:51:00,
2013-06-28 23:01:00,72.0,68.0,-100.00,SW,222,0.0,4.0,87,0.00,,,0.01,0.000000,,2013-06-29 03:01:00,
2013-06-28 23:32:00,70.0,68.0,-100.00,SSW,206,0.0,5.0,92,0.00,,,0.01,0.000000,,2013-06-29 03:32:00,
2013-06-28 23:41:00,70.0,68.0,-100.00,SSW,206,0.0,5.0,92,0.00,,,0.01,0.000000,,2013-06-29 03:41:00,
2013-06-28 23:51:00,70.0,68.0,-100.00,SSW,206,0.0,5.0,92,0.00,,,0.01,0.000000,,2013-06-29 03:51:00,